LMML

Luqa

Airport
ICAO code
LMML
Summary
ICAO Region
EUR
ICAO Territory
Location

Luqa,

Coordinates
35° 51' 25" N , 14° 28' 40" E
KCC
Csa
Metar
Observation
LMML 100945Z 18009KT 140V220 9999 SCT025TCU 30/22 Q1015 NOSIG RMK CB TOPS TO N
Station
Luqa
Date/Time
2022-08-10 09:45:00
Wind direction
180°
Wind speed
09 kts
Lowest cloud amount
scattered clouds
Temperature
30°C
Dew point
22°C
Humidity
62%
QNH
1015 hPa
Weather condition
n/a

Description

International airport serving the island of Malta.

Climatology

Dry-summer subtropical ”Mediterranean" climate (Köppen climate classification Csa) - characterized by hot, dry summers and mild winters. During the summer, subtropical high pressure cells dominate, making rainfall unlikely except for the occasional thunderstorm. In the winter, periodic storms bring rain.

Runways

Designator Length Width Surface Rops
5/23 2377 45 ASP Yes/Yes
13/31 3544 60 ASP Yes/Yes

Airport map

Aerial View

SKYbrary Partners:

Safety knowledge contributed by: